sensor_id;sensor_type;location;lat;lon;timestamp;temperature;humidity
2447;DHT22;26430;48.818;9.244;2023-09-18T00:01:38;22.10;99.90
2447;DHT22;26430;48.818;9.244;2023-09-18T00:04:05;21.90;99.90
2447;DHT22;26430;48.818;9.244;2023-09-18T00:06:31;21.80;99.90
2447;DHT22;26430;48.818;9.244;2023-09-18T00:08:56;21.80;99.90
2447;DHT22;26430;48.818;9.244;2023-09-18T00:11:22;21.80;99.90
2447;DHT22;26430;48.818;9.244;2023-09-18T00:13:47;21.60;99.90
2447;DHT22;26430;48.818;9.244;2023-09-18T00:16:13;21.50;99.90
2447;DHT22;26430;48.818;9.244;2023-09-18T00:18:38;21.50;99.90
2447;DHT22;26430;48.818;9.244;2023-09-18T00:21:04;21.40;99.90
2447;DHT22;26430;48.818;9.244;2023-09-18T00:23:32;21.40;99.90
2447;DHT22;26430;48.818;9.244;2023-09-18T00:26:00;21.50;99.90
2447;DHT22;26430;48.818;9.244;2023-09-18T00:28:26;21.60;99.90
2447;DHT22;26430;48.818;9.244;2023-09-18T00:30:51;21.70;99.90
2447;DHT22;26430;48.818;9.244;2023-09-18T00:33:17;21.70;99.90
2447;DHT22;26430;48.818;9.244;2023-09-18T00:35:51;21.80;99.90
2447;DHT22;26430;48.818;9.244;2023-09-18T00:38:17;21.70;99.90
2447;DHT22;26430;48.818;9.244;2023-09-18T00:40:43;21.70;99.90
2447;DHT22;26430;48.818;9.244;2023-09-18T00:43:09;21.70;99.90
2447;DHT22;26430;48.818;9.244;2023-09-18T00:45:39;21.70;99.90
2447;DHT22;26430;48.818;9.244;2023-09-18T00:48:06;21.60;99.90
2447;DHT22;26430;48.818;9.244;2023-09-18T00:50:32;21.70;99.90
2447;DHT22;26430;48.818;9.244;2023-09-18T00:52:58;21.70;99.90
2447;DHT22;26430;48.818;9.244;2023-09-18T00:55:24;21.60;99.90
2447;DHT22;26430;48.818;9.244;2023-09-18T00:57:50;21.60;99.90
2447;DHT22;26430;48.818;9.244;2023-09-18T01:00:15;21.60;99.90
2447;DHT22;26430;48.818;9.244;2023-09-18T01:02:44;21.50;99.90
2447;DHT22;26430;48.818;9.244;2023-09-18T01:05:10;21.40;99.90
2447;DHT22;26430;48.818;9.244;2023-09-18T01:07:36;21.60;99.90
2447;DHT22;26430;48.818;9.244;2023-09-18T01:10:02;21.60;99.90
2447;DHT22;26430;48.818;9.244;2023-09-18T01:12:55;21.80;99.90
2447;DHT22;26430;48.818;9.244;2023-09-18T01:15:29;21.80;99.90
2447;DHT22;26430;48.818;9.244;2023-09-18T01:17:55;21.90;99.90
2447;DHT22;26430;48.818;9.244;2023-09-18T01:20:21;21.70;99.90
2447;DHT22;26430;48.818;9.244;2023-09-18T01:22:47;21.60;99.90
2447;DHT22;26430;48.818;9.244;2023-09-18T01:25:15;21.40;99.90
2447;DHT22;26430;48.818;9.244;2023-09-18T01:27:40;21.50;99.90
2447;DHT22;26430;48.818;9.244;2023-09-18T01:30:07;21.40;99.90
2447;DHT22;26430;48.818;9.244;2023-09-18T01:32:35;21.30;99.90
2447;DHT22;26430;48.818;9.244;2023-09-18T01:35:02;21.30;99.90
2447;DHT22;26430;48.818;9.244;2023-09-18T01:37:31;21.20;99.90
2447;DHT22;26430;48.818;9.244;2023-09-18T01:39:58;21.20;99.90
2447;DHT22;26430;48.818;9.244;2023-09-18T01:42:25;21.30;99.90
2447;DHT22;26430;48.818;9.244;2023-09-18T01:44:52;21.30;99.90
2447;DHT22;26430;48.818;9.244;2023-09-18T01:47:19;21.40;99.90
2447;DHT22;26430;48.818;9.244;2023-09-18T01:49:46;21.40;99.90
2447;DHT22;26430;48.818;9.244;2023-09-18T01:52:12;21.50;99.90
2447;DHT22;26430;48.818;9.244;2023-09-18T01:54:38;21.60;99.90
2447;DHT22;26430;48.818;9.244;2023-09-18T01:57:04;21.70;99.90
2447;DHT22;26430;48.818;9.244;2023-09-18T01:59:30;21.80;99.90
2447;DHT22;26430;48.818;9.244;2023-09-18T02:01:56;21.80;99.90
2447;DHT22;26430;48.818;9.244;2023-09-18T02:04:22;21.90;99.90
2447;DHT22;26430;48.818;9.244;2023-09-18T02:06:49;22.10;99.90
2447;DHT22;26430;48.818;9.244;2023-09-18T02:09:14;22.10;99.90
2447;DHT22;26430;48.818;9.244;2023-09-18T02:11:42;22.20;99.90
2447;DHT22;26430;48.818;9.244;2023-09-18T02:14:08;22.40;99.90
2447;DHT22;26430;48.818;9.244;2023-09-18T02:16:36;22.50;99.90
2447;DHT22;26430;48.818;9.244;2023-09-18T02:19:03;22.40;99.90
2447;DHT22;26430;48.818;9.244;2023-09-18T02:21:29;22.20;99.90
2447;DHT22;26430;48.818;9.244;2023-09-18T02:23:54;21.80;99.90
2447;DHT22;26430;48.818;9.244;2023-09-18T02:26:22;21.70;99.90
2447;DHT22;26430;48.818;9.244;2023-09-18T02:28:47;21.70;99.90
2447;DHT22;26430;48.818;9.244;2023-09-18T02:31:13;21.70;99.90
2447;DHT22;26430;48.818;9.244;2023-09-18T02:33:40;21.40;99.90
2447;DHT22;26430;48.818;9.244;2023-09-18T02:36:06;21.30;99.90
2447;DHT22;26430;48.818;9.244;2023-09-18T02:38:32;21.40;99.90
2447;DHT22;26430;48.818;9.244;2023-09-18T02:40:58;21.60;99.90
2447;DHT22;26430;48.818;9.244;2023-09-18T02:43:24;21.80;99.90
2447;DHT22;26430;48.818;9.244;2023-09-18T02:45:50;21.80;99.90
2447;DHT22;26430;48.818;9.244;2023-09-18T02:48:16;21.90;99.90
2447;DHT22;26430;48.818;9.244;2023-09-18T02:50:42;21.70;99.90
2447;DHT22;26430;48.818;9.244;2023-09-18T02:53:11;21.50;99.90
2447;DHT22;26430;48.818;9.244;2023-09-18T02:55:41;21.30;99.90
2447;DHT22;26430;48.818;9.244;2023-09-18T02:58:07;21.60;99.90
2447;DHT22;26430;48.818;9.244;2023-09-18T03:00:34;21.80;99.90
2447;DHT22;26430;48.818;9.244;2023-09-18T03:03:00;21.60;99.90
2447;DHT22;26430;48.818;9.244;2023-09-18T03:05:25;21.30;99.90
2447;DHT22;26430;48.818;9.244;2023-09-18T03:07:52;21.30;99.90
2447;DHT22;26430;48.818;9.244;2023-09-18T03:10:17;21.30;99.90
2447;DHT22;26430;48.818;9.244;2023-09-18T03:12:47;21.20;99.90
2447;DHT22;26430;48.818;9.244;2023-09-18T03:15:12;21.00;99.90
2447;DHT22;26430;48.818;9.244;2023-09-18T03:17:38;21.00;99.90
2447;DHT22;26430;48.818;9.244;2023-09-18T03:20:06;21.00;99.90
2447;DHT22;26430;48.818;9.244;2023-09-18T03:22:32;21.00;99.90
2447;DHT22;26430;48.818;9.244;2023-09-18T03:24:58;20.60;99.90
2447;DHT22;26430;48.818;9.244;2023-09-18T03:27:23;20.60;99.90
2447;DHT22;26430;48.818;9.244;2023-09-18T03:29:56;20.60;99.90
2447;DHT22;26430;48.818;9.244;2023-09-18T03:32:22;20.90;99.90
2447;DHT22;26430;48.818;9.244;2023-09-18T03:34:51;21.00;99.90
2447;DHT22;26430;48.818;9.244;2023-09-18T03:37:16;21.00;99.90
2447;DHT22;26430;48.818;9.244;2023-09-18T03:39:42;20.90;99.90
2447;DHT22;26430;48.818;9.244;2023-09-18T03:42:08;20.90;99.90
2447;DHT22;26430;48.818;9.244;2023-09-18T03:44:33;20.80;99.90
2447;DHT22;26430;48.818;9.244;2023-09-18T03:46:59;20.60;99.90
2447;DHT22;26430;48.818;9.244;2023-09-18T03:49:24;20.60;99.90
2447;DHT22;26430;48.818;9.244;2023-09-18T03:51:50;20.00;99.90
2447;DHT22;26430;48.818;9.244;2023-09-18T03:54:15;19.80;99.90
2447;DHT22;26430;48.818;9.244;2023-09-18T03:56:41;19.90;99.90
2447;DHT22;26430;48.818;9.244;2023-09-18T03:59:06;19.90;99.90
2447;DHT22;26430;48.818;9.244;2023-09-18T04:01:32;19.90;99.90
2447;DHT22;26430;48.818;9.244;2023-09-18T04:03:57;20.00;99.90
2447;DHT22;26430;48.818;9.244;2023-09-18T04:06:23;19.90;99.90
2447;DHT22;26430;48.818;9.244;2023-09-18T04:08:51;20.00;99.90
2447;DHT22;26430;48.818;9.244;2023-09-18T04:11:17;20.10;99.90
2447;DHT22;26430;48.818;9.244;2023-09-18T04:13:45;20.20;99.90
2447;DHT22;26430;48.818;9.244;2023-09-18T04:16:10;20.40;99.90
2447;DHT22;26430;48.818;9.244;2023-09-18T04:18:39;20.60;99.90
2447;DHT22;26430;48.818;9.244;2023-09-18T04:21:04;20.60;99.90
2447;DHT22;26430;48.818;9.244;2023-09-18T04:23:30;20.60;99.90
2447;DHT22;26430;48.818;9.244;2023-09-18T04:25:55;20.50;99.90
2447;DHT22;26430;48.818;9.244;2023-09-18T04:28:23;20.50;99.90
2447;DHT22;26430;48.818;9.244;2023-09-18T04:30:49;20.60;99.90
2447;DHT22;26430;48.818;9.244;2023-09-18T04:33:15;20.70;99.90
2447;DHT22;26430;48.818;9.244;2023-09-18T04:35:41;20.80;99.90
2447;DHT22;26430;48.818;9.244;2023-09-18T04:38:07;20.80;99.90
2447;DHT22;26430;48.818;9.244;2023-09-18T04:40:34;20.70;99.90
2447;DHT22;26430;48.818;9.244;2023-09-18T04:43:00;20.70;99.90
2447;DHT22;26430;48.818;9.244;2023-09-18T04:45:26;20.60;99.90
2447;DHT22;26430;48.818;9.244;2023-09-18T04:47:53;20.60;99.90
2447;DHT22;26430;48.818;9.244;2023-09-18T04:50:19;20.40;99.90
2447;DHT22;26430;48.818;9.244;2023-09-18T04:52:45;20.50;99.90
2447;DHT22;26430;48.818;9.244;2023-09-18T04:55:11;20.60;99.90
2447;DHT22;26430;48.818;9.244;2023-09-18T04:57:38;20.40;99.90
2447;DHT22;26430;48.818;9.244;2023-09-18T05:00:04;20.40;99.90
2447;DHT22;26430;48.818;9.244;2023-09-18T05:02:39;20.20;99.90
2447;DHT22;26430;48.818;9.244;2023-09-18T05:05:05;20.40;99.90
2447;DHT22;26430;48.818;9.244;2023-09-18T05:07:31;20.30;99.90
2447;DHT22;26430;48.818;9.244;2023-09-18T05:09:58;20.20;99.90
2447;DHT22;26430;48.818;9.244;2023-09-18T05:12:23;20.30;99.90
2447;DHT22;26430;48.818;9.244;2023-09-18T05:14:49;20.40;99.90
2447;DHT22;26430;48.818;9.244;2023-09-18T05:17:16;20.40;99.90
2447;DHT22;26430;48.818;9.244;2023-09-18T05:19:43;20.40;99.90
2447;DHT22;26430;48.818;9.244;2023-09-18T05:22:08;20.70;99.90
2447;DHT22;26430;48.818;9.244;2023-09-18T05:24:38;20.80;99.90
2447;DHT22;26430;48.818;9.244;2023-09-18T05:27:04;20.60;99.90
2447;DHT22;26430;48.818;9.244;2023-09-18T05:29:31;20.50;99.90
2447;DHT22;26430;48.818;9.244;2023-09-18T05:31:57;20.40;99.90
2447;DHT22;26430;48.818;9.244;2023-09-18T05:34:23;20.30;99.90
2447;DHT22;26430;48.818;9.244;2023-09-18T05:36:48;20.00;99.90
2447;DHT22;26430;48.818;9.244;2023-09-18T05:39:14;19.80;99.90
2447;DHT22;26430;48.818;9.244;2023-09-18T05:41:39;19.90;99.90
2447;DHT22;26430;48.818;9.244;2023-09-18T05:44:05;19.90;99.90
2447;DHT22;26430;48.818;9.244;2023-09-18T05:46:34;19.90;99.90
2447;DHT22;26430;48.818;9.244;2023-09-18T05:49:00;19.80;99.90
2447;DHT22;26430;48.818;9.244;2023-09-18T05:51:26;19.80;99.90
2447;DHT22;26430;48.818;9.244;2023-09-18T05:53:52;19.70;99.90
2447;DHT22;26430;48.818;9.244;2023-09-18T05:56:18;19.60;99.90
2447;DHT22;26430;48.818;9.244;2023-09-18T05:58:43;19.50;99.90
2447;DHT22;26430;48.818;9.244;2023-09-18T06:01:09;19.60;99.90
2447;DHT22;26430;48.818;9.244;2023-09-18T06:03:35;19.60;99.90
2447;DHT22;26430;48.818;9.244;2023-09-18T06:06:07;19.50;99.90
2447;DHT22;26430;48.818;9.244;2023-09-18T06:08:35;19.60;99.90
2447;DHT22;26430;48.818;9.244;2023-09-18T06:11:01;19.60;99.90
2447;DHT22;26430;48.818;9.244;2023-09-18T06:13:27;19.60;99.90
2447;DHT22;26430;48.818;9.244;2023-09-18T06:15:53;19.70;99.90
2447;DHT22;26430;48.818;9.244;2023-09-18T06:18:21;19.80;99.90
2447;DHT22;26430;48.818;9.244;2023-09-18T06:20:47;19.80;99.90
2447;DHT22;26430;48.818;9.244;2023-09-18T06:23:13;19.80;99.90
2447;DHT22;26430;48.818;9.244;2023-09-18T06:25:42;19.90;99.90
2447;DHT22;26430;48.818;9.244;2023-09-18T06:28:07;19.90;99.90
2447;DHT22;26430;48.818;9.244;2023-09-18T06:30:33;20.10;99.90
2447;DHT22;26430;48.818;9.244;2023-09-18T06:33:00;20.10;99.90
2447;DHT22;26430;48.818;9.244;2023-09-18T06:35:26;20.30;99.90
2447;DHT22;26430;48.818;9.244;2023-09-18T06:37:52;20.40;99.90
2447;DHT22;26430;48.818;9.244;2023-09-18T06:40:20;20.40;99.90
2447;DHT22;26430;48.818;9.244;2023-09-18T06:42:45;20.30;99.90
2447;DHT22;26430;48.818;9.244;2023-09-18T06:45:11;20.20;99.90
2447;DHT22;26430;48.818;9.244;2023-09-18T06:47:36;20.00;99.90
2447;DHT22;26430;48.818;9.244;2023-09-18T06:50:02;19.80;99.90
2447;DHT22;26430;48.818;9.244;2023-09-18T06:52:31;19.80;99.90
2447;DHT22;26430;48.818;9.244;2023-09-18T06:54:56;19.60;99.90
2447;DHT22;26430;48.818;9.244;2023-09-18T06:57:23;19.60;99.90
2447;DHT22;26430;48.818;9.244;2023-09-18T06:59:49;19.60;99.90
2447;DHT22;26430;48.818;9.244;2023-09-18T07:02:14;19.50;99.90
2447;DHT22;26430;48.818;9.244;2023-09-18T07:04:41;19.50;99.90
2447;DHT22;26430;48.818;9.244;2023-09-18T07:07:14;19.70;99.90
2447;DHT22;26430;48.818;9.244;2023-09-18T07:09:41;19.70;99.90
2447;DHT22;26430;48.818;9.244;2023-09-18T07:12:08;19.80;99.90
2447;DHT22;26430;48.818;9.244;2023-09-18T07:14:37;19.80;99.90
2447;DHT22;26430;48.818;9.244;2023-09-18T07:17:04;19.90;99.90
2447;DHT22;26430;48.818;9.244;2023-09-18T07:19:29;19.90;99.90
2447;DHT22;26430;48.818;9.244;2023-09-18T07:21:55;19.90;99.90
2447;DHT22;26430;48.818;9.244;2023-09-18T07:24:20;19.90;99.90
2447;DHT22;26430;48.818;9.244;2023-09-18T07:26:47;19.90;99.90
2447;DHT22;26430;48.818;9.244;2023-09-18T07:29:14;19.90;99.90
2447;DHT22;26430;48.818;9.244;2023-09-18T07:31:41;20.10;99.90
2447;DHT22;26430;48.818;9.244;2023-09-18T07:34:07;20.10;99.90
2447;DHT22;26430;48.818;9.244;2023-09-18T07:36:32;20.20;99.90
2447;DHT22;26430;48.818;9.244;2023-09-18T07:38:58;20.10;99.90
2447;DHT22;26430;48.818;9.244;2023-09-18T07:41:24;20.20;99.90
2447;DHT22;26430;48.818;9.244;2023-09-18T07:43:50;20.30;99.90
2447;DHT22;26430;48.818;9.244;2023-09-18T07:46:16;20.40;99.90
2447;DHT22;26430;48.818;9.244;2023-09-18T07:48:41;20.40;99.90
2447;DHT22;26430;48.818;9.244;2023-09-18T07:51:13;20.70;99.90
2447;DHT22;26430;48.818;9.244;2023-09-18T07:53:41;20.70;99.90
2447;DHT22;26430;48.818;9.244;2023-09-18T07:56:07;20.80;99.90
2447;DHT22;26430;48.818;9.244;2023-09-18T07:58:33;20.90;99.90
2447;DHT22;26430;48.818;9.244;2023-09-18T08:00:59;20.80;99.90
2447;DHT22;26430;48.818;9.244;2023-09-18T08:03:25;20.80;99.90
2447;DHT22;26430;48.818;9.244;2023-09-18T08:05:54;20.90;99.90
2447;DHT22;26430;48.818;9.244;2023-09-18T08:08:21;21.00;99.90
2447;DHT22;26430;48.818;9.244;2023-09-18T08:10:49;21.10;99.90
2447;DHT22;26430;48.818;9.244;2023-09-18T08:13:15;21.20;99.90
2447;DHT22;26430;48.818;9.244;2023-09-18T08:15:41;21.30;99.90
2447;DHT22;26430;48.818;9.244;2023-09-18T08:18:06;21.30;99.90
2447;DHT22;26430;48.818;9.244;2023-09-18T08:20:32;21.20;99.90
2447;DHT22;26430;48.818;9.244;2023-09-18T08:22:58;21.20;99.90
2447;DHT22;26430;48.818;9.244;2023-09-18T08:25:27;21.10;99.90
2447;DHT22;26430;48.818;9.244;2023-09-18T08:27:52;21.10;99.90
2447;DHT22;26430;48.818;9.244;2023-09-18T08:30:18;21.10;99.90
2447;DHT22;26430;48.818;9.244;2023-09-18T08:32:46;20.90;99.90
2447;DHT22;26430;48.818;9.244;2023-09-18T08:35:12;21.00;99.90
2447;DHT22;26430;48.818;9.244;2023-09-18T08:37:39;21.00;99.90
2447;DHT22;26430;48.818;9.244;2023-09-18T08:40:05;20.90;99.90
2447;DHT22;26430;48.818;9.244;2023-09-18T08:42:35;20.90;99.90
2447;DHT22;26430;48.818;9.244;2023-09-18T08:45:02;20.90;99.90
2447;DHT22;26430;48.818;9.244;2023-09-18T08:47:30;20.70;99.90
2447;DHT22;26430;48.818;9.244;2023-09-18T08:49:57;20.50;99.90
2447;DHT22;26430;48.818;9.244;2023-09-18T08:52:24;20.40;99.90
2447;DHT22;26430;48.818;9.244;2023-09-18T08:54:51;20.30;99.90
2447;DHT22;26430;48.818;9.244;2023-09-18T08:57:17;20.20;99.90
2447;DHT22;26430;48.818;9.244;2023-09-18T08:59:43;20.20;99.90
2447;DHT22;26430;48.818;9.244;2023-09-18T09:02:10;20.20;99.90
2447;DHT22;26430;48.818;9.244;2023-09-18T09:04:38;20.20;99.90
2447;DHT22;26430;48.818;9.244;2023-09-18T09:07:03;20.00;99.90
2447;DHT22;26430;48.818;9.244;2023-09-18T09:09:29;19.80;99.90
2447;DHT22;26430;48.818;9.244;2023-09-18T09:11:56;19.50;99.90
2447;DHT22;26430;48.818;9.244;2023-09-18T09:14:22;19.30;99.90
2447;DHT22;26430;48.818;9.244;2023-09-18T09:16:53;19.00;99.90
2447;DHT22;26430;48.818;9.244;2023-09-18T09:19:37;18.80;99.90
2447;DHT22;26430;48.818;9.244;2023-09-18T09:22:05;18.80;99.90
2447;DHT22;26430;48.818;9.244;2023-09-18T09:24:42;18.80;99.90
2447;DHT22;26430;48.818;9.244;2023-09-18T09:27:08;18.70;99.90
2447;DHT22;26430;48.818;9.244;2023-09-18T09:29:34;18.80;99.90
2447;DHT22;26430;48.818;9.244;2023-09-18T09:32:14;18.80;99.90
2447;DHT22;26430;48.818;9.244;2023-09-18T09:34:41;18.90;99.90
2447;DHT22;26430;48.818;9.244;2023-09-18T09:37:06;19.20;99.90
2447;DHT22;26430;48.818;9.244;2023-09-18T09:39:33;19.30;99.90
2447;DHT22;26430;48.818;9.244;2023-09-18T09:42:00;19.20;99.90
2447;DHT22;26430;48.818;9.244;2023-09-18T09:44:31;19.30;99.90
2447;DHT22;26430;48.818;9.244;2023-09-18T09:46:59;19.30;99.90
2447;DHT22;26430;48.818;9.244;2023-09-18T09:49:25;19.30;99.90
2447;DHT22;26430;48.818;9.244;2023-09-18T09:51:53;19.40;99.90
2447;DHT22;26430;48.818;9.244;2023-09-18T09:54:39;19.50;99.90
2447;DHT22;26430;48.818;9.244;2023-09-18T09:57:06;19.50;99.90
2447;DHT22;26430;48.818;9.244;2023-09-18T09:59:32;19.30;99.90
2447;DHT22;26430;48.818;9.244;2023-09-18T10:02:00;19.50;99.90
2447;DHT22;26430;48.818;9.244;2023-09-18T10:04:28;19.70;99.90
2447;DHT22;26430;48.818;9.244;2023-09-18T10:07:08;19.80;99.90
2447;DHT22;26430;48.818;9.244;2023-09-18T10:09:41;19.70;99.90
2447;DHT22;26430;48.818;9.244;2023-09-18T10:12:15;19.50;99.90
2447;DHT22;26430;48.818;9.244;2023-09-18T10:14:47;19.30;99.90
2447;DHT22;26430;48.818;9.244;2023-09-18T10:17:18;19.10;99.90
2447;DHT22;26430;48.818;9.244;2023-09-18T10:20:08;19.00;99.90
2447;DHT22;26430;48.818;9.244;2023-09-18T10:22:54;19.20;99.90
2447;DHT22;26430;48.818;9.244;2023-09-18T10:25:23;19.10;99.90
2447;DHT22;26430;48.818;9.244;2023-09-18T10:27:51;19.00;99.90
2447;DHT22;26430;48.818;9.244;2023-09-18T10:30:19;19.10;99.90
2447;DHT22;26430;48.818;9.244;2023-09-18T10:32:45;19.00;99.90
2447;DHT22;26430;48.818;9.244;2023-09-18T10:35:11;19.10;99.90
2447;DHT22;26430;48.818;9.244;2023-09-18T10:37:38;18.90;99.90
2447;DHT22;26430;48.818;9.244;2023-09-18T10:40:05;18.90;99.90
2447;DHT22;26430;48.818;9.244;2023-09-18T10:42:34;18.80;99.90
2447;DHT22;26430;48.818;9.244;2023-09-18T10:45:01;18.90;99.90
2447;DHT22;26430;48.818;9.244;2023-09-18T10:47:30;18.90;99.90
2447;DHT22;26430;48.818;9.244;2023-09-18T10:49:56;19.00;99.90
2447;DHT22;26430;48.818;9.244;2023-09-18T10:52:22;19.00;99.90
2447;DHT22;26430;48.818;9.244;2023-09-18T10:54:48;18.90;99.90
2447;DHT22;26430;48.818;9.244;2023-09-18T10:57:13;19.00;99.90
2447;DHT22;26430;48.818;9.244;2023-09-18T10:59:46;19.00;99.90
2447;DHT22;26430;48.818;9.244;2023-09-18T11:02:16;18.90;99.90
2447;DHT22;26430;48.818;9.244;2023-09-18T11:04:42;18.90;99.90
2447;DHT22;26430;48.818;9.244;2023-09-18T11:07:08;18.90;99.90
2447;DHT22;26430;48.818;9.244;2023-09-18T11:09:42;18.90;99.90
2447;DHT22;26430;48.818;9.244;2023-09-18T11:12:09;18.80;99.90
2447;DHT22;26430;48.818;9.244;2023-09-18T11:17:38;18.80;99.90
2447;DHT22;26430;48.818;9.244;2023-09-18T11:20:17;18.90;99.90
2447;DHT22;26430;48.818;9.244;2023-09-18T11:22:47;18.90;99.90
2447;DHT22;26430;48.818;9.244;2023-09-18T11:25:38;19.00;99.90
2447;DHT22;26430;48.818;9.244;2023-09-18T11:28:06;18.90;99.90
2447;DHT22;26430;48.818;9.244;2023-09-18T11:30:34;18.90;99.90
2447;DHT22;26430;48.818;9.244;2023-09-18T11:33:05;18.90;99.90
2447;DHT22;26430;48.818;9.244;2023-09-18T11:35:35;18.90;99.90
2447;DHT22;26430;48.818;9.244;2023-09-18T11:38:11;18.80;99.90
2447;DHT22;26430;48.818;9.244;2023-09-18T11:40:38;18.90;99.90
2447;DHT22;26430;48.818;9.244;2023-09-18T11:43:25;18.90;99.90
2447;DHT22;26430;48.818;9.244;2023-09-18T11:45:52;19.00;99.90
2447;DHT22;26430;48.818;9.244;2023-09-18T11:48:20;19.00;99.90
2447;DHT22;26430;48.818;9.244;2023-09-18T11:50:47;19.00;99.90
2447;DHT22;26430;48.818;9.244;2023-09-18T11:53:17;18.90;99.90
2447;DHT22;26430;48.818;9.244;2023-09-18T11:55:45;18.90;99.90
2447;DHT22;26430;48.818;9.244;2023-09-18T11:58:12;18.80;99.90
2447;DHT22;26430;48.818;9.244;2023-09-18T12:00:38;18.90;99.90
2447;DHT22;26430;48.818;9.244;2023-09-18T12:03:15;18.90;99.90
2447;DHT22;26430;48.818;9.244;2023-09-18T12:08:21;19.00;99.90
2447;DHT22;26430;48.818;9.244;2023-09-18T12:10:50;19.10;99.90
2447;DHT22;26430;48.818;9.244;2023-09-18T12:13:16;19.10;99.90
2447;DHT22;26430;48.818;9.244;2023-09-18T12:15:42;19.20;99.90
2447;DHT22;26430;48.818;9.244;2023-09-18T12:18:09;19.30;99.90
2447;DHT22;26430;48.818;9.244;2023-09-18T12:20:37;19.20;99.90
2447;DHT22;26430;48.818;9.244;2023-09-18T12:23:03;19.20;99.90
2447;DHT22;26430;48.818;9.244;2023-09-18T12:25:29;19.30;99.90
2447;DHT22;26430;48.818;9.244;2023-09-18T12:27:55;19.40;99.90
2447;DHT22;26430;48.818;9.244;2023-09-18T12:30:22;19.30;99.90
2447;DHT22;26430;48.818;9.244;2023-09-18T12:32:51;19.30;99.90
2447;DHT22;26430;48.818;9.244;2023-09-18T12:35:17;19.30;99.90
2447;DHT22;26430;48.818;9.244;2023-09-18T12:37:44;19.20;99.90
2447;DHT22;26430;48.818;9.244;2023-09-18T12:40:25;19.30;99.90
2447;DHT22;26430;48.818;9.244;2023-09-18T12:42:51;19.30;99.90
2447;DHT22;26430;48.818;9.244;2023-09-18T12:45:19;19.40;99.90
2447;DHT22;26430;48.818;9.244;2023-09-18T12:47:45;19.50;99.90
2447;DHT22;26430;48.818;9.244;2023-09-18T12:50:13;19.60;99.90
2447;DHT22;26430;48.818;9.244;2023-09-18T12:52:43;19.80;99.90
2447;DHT22;26430;48.818;9.244;2023-09-18T12:55:19;19.80;99.90
2447;DHT22;26430;48.818;9.244;2023-09-18T12:57:45;19.90;99.90
2447;DHT22;26430;48.818;9.244;2023-09-18T13:00:11;20.10;99.90
2447;DHT22;26430;48.818;9.244;2023-09-18T13:02:38;20.20;99.90
2447;DHT22;26430;48.818;9.244;2023-09-18T13:05:05;20.30;99.90
2447;DHT22;26430;48.818;9.244;2023-09-18T13:07:31;20.50;99.90
2447;DHT22;26430;48.818;9.244;2023-09-18T13:10:03;20.40;99.90
2447;DHT22;26430;48.818;9.244;2023-09-18T13:12:46;20.50;99.90
2447;DHT22;26430;48.818;9.244;2023-09-18T13:15:13;20.50;99.90
2447;DHT22;26430;48.818;9.244;2023-09-18T13:17:44;20.60;99.90
2447;DHT22;26430;48.818;9.244;2023-09-18T13:20:15;20.70;99.90
2447;DHT22;26430;48.818;9.244;2023-09-18T13:22:42;20.80;99.90
2447;DHT22;26430;48.818;9.244;2023-09-18T13:25:09;20.90;99.90
2447;DHT22;26430;48.818;9.244;2023-09-18T13:27:38;21.00;99.90
2447;DHT22;26430;48.818;9.244;2023-09-18T13:30:08;21.10;99.90
2447;DHT22;26430;48.818;9.244;2023-09-18T13:32:35;21.00;99.90
2447;DHT22;26430;48.818;9.244;2023-09-18T13:35:02;20.90;99.90
2447;DHT22;26430;48.818;9.244;2023-09-18T13:37:28;20.90;99.90
2447;DHT22;26430;48.818;9.244;2023-09-18T13:39:54;21.00;99.90
2447;DHT22;26430;48.818;9.244;2023-09-18T13:42:20;21.00;99.90
2447;DHT22;26430;48.818;9.244;2023-09-18T13:44:45;21.50;99.90
2447;DHT22;26430;48.818;9.244;2023-09-18T13:47:12;21.50;99.90
2447;DHT22;26430;48.818;9.244;2023-09-18T13:49:38;21.60;99.90
2447;DHT22;26430;48.818;9.244;2023-09-18T13:52:04;21.80;99.90
2447;DHT22;26430;48.818;9.244;2023-09-18T13:54:29;21.80;99.90
2447;DHT22;26430;48.818;9.244;2023-09-18T13:56:55;21.60;99.90
2447;DHT22;26430;48.818;9.244;2023-09-18T13:59:21;21.50;99.90
2447;DHT22;26430;48.818;9.244;2023-09-18T14:01:46;21.40;99.90
2447;DHT22;26430;48.818;9.244;2023-09-18T14:04:12;21.60;99.90
2447;DHT22;26430;48.818;9.244;2023-09-18T14:06:38;21.60;99.90
2447;DHT22;26430;48.818;9.244;2023-09-18T14:09:04;21.80;99.90
2447;DHT22;26430;48.818;9.244;2023-09-18T14:11:31;21.70;99.90
2447;DHT22;26430;48.818;9.244;2023-09-18T14:13:57;21.60;99.90
2447;DHT22;26430;48.818;9.244;2023-09-18T14:16:22;21.70;99.90
2447;DHT22;26430;48.818;9.244;2023-09-18T14:18:48;21.70;99.90
2447;DHT22;26430;48.818;9.244;2023-09-18T14:21:13;21.60;99.90
2447;DHT22;26430;48.818;9.244;2023-09-18T14:23:39;21.70;99.90
2447;DHT22;26430;48.818;9.244;2023-09-18T14:26:05;21.80;99.90
2447;DHT22;26430;48.818;9.244;2023-09-18T14:28:31;21.80;99.90
2447;DHT22;26430;48.818;9.244;2023-09-18T14:30:58;21.80;99.90
2447;DHT22;26430;48.818;9.244;2023-09-18T14:33:23;21.90;99.90
2447;DHT22;26430;48.818;9.244;2023-09-18T14:35:49;21.80;99.90
2447;DHT22;26430;48.818;9.244;2023-09-18T14:38:15;21.80;99.90
2447;DHT22;26430;48.818;9.244;2023-09-18T14:40:41;21.80;99.90
2447;DHT22;26430;48.818;9.244;2023-09-18T14:43:08;21.70;99.90
2447;DHT22;26430;48.818;9.244;2023-09-18T14:45:33;21.70;99.90
2447;DHT22;26430;48.818;9.244;2023-09-18T14:48:00;21.80;99.90
2447;DHT22;26430;48.818;9.244;2023-09-18T14:50:25;21.90;99.90
2447;DHT22;26430;48.818;9.244;2023-09-18T14:52:51;21.90;99.90
2447;DHT22;26430;48.818;9.244;2023-09-18T14:55:17;22.00;99.90
2447;DHT22;26430;48.818;9.244;2023-09-18T14:57:42;22.20;99.90
2447;DHT22;26430;48.818;9.244;2023-09-18T15:00:08;22.30;99.90
2447;DHT22;26430;48.818;9.244;2023-09-18T15:02:34;22.40;99.90
2447;DHT22;26430;48.818;9.244;2023-09-18T15:05:00;22.40;99.90
2447;DHT22;26430;48.818;9.244;2023-09-18T15:07:26;22.60;99.90
2447;DHT22;26430;48.818;9.244;2023-09-18T15:09:52;22.40;99.90
2447;DHT22;26430;48.818;9.244;2023-09-18T15:12:18;22.50;99.90
2447;DHT22;26430;48.818;9.244;2023-09-18T15:14:43;22.30;99.90
2447;DHT22;26430;48.818;9.244;2023-09-18T15:17:09;22.40;99.90
2447;DHT22;26430;48.818;9.244;2023-09-18T15:19:35;22.30;99.90
2447;DHT22;26430;48.818;9.244;2023-09-18T15:22:00;22.10;99.90
2447;DHT22;26430;48.818;9.244;2023-09-18T15:24:26;21.90;99.90
2447;DHT22;26430;48.818;9.244;2023-09-18T15:26:52;21.90;99.90
2447;DHT22;26430;48.818;9.244;2023-09-18T15:29:17;22.00;99.90
2447;DHT22;26430;48.818;9.244;2023-09-18T15:31:43;22.10;99.90
2447;DHT22;26430;48.818;9.244;2023-09-18T15:34:11;22.00;99.90
2447;DHT22;26430;48.818;9.244;2023-09-18T15:36:37;22.00;99.90
2447;DHT22;26430;48.818;9.244;2023-09-18T15:39:03;22.00;99.90
2447;DHT22;26430;48.818;9.244;2023-09-18T15:41:28;22.10;99.90
2447;DHT22;26430;48.818;9.244;2023-09-18T15:43:54;22.10;99.90
2447;DHT22;26430;48.818;9.244;2023-09-18T15:46:20;22.10;99.90
2447;DHT22;26430;48.818;9.244;2023-09-18T15:48:45;22.00;99.90
2447;DHT22;26430;48.818;9.244;2023-09-18T15:51:11;22.00;99.90